KAQX

Allendale County Airport

Allendale, South Carolina, USA
METAR KAQX 241115Z AUTO 00000KT 10SM BKN044 BKN049 OVC055 23/22 A3011 RMK AO2
Observed Flight Rules
Sep-24 @ 11:15 UTC (17 minutes ago) Visual Flight Rules
Visibility Clouds
10 miles
  • Broken at 4,400' AGL
  • Broken at 4,900' AGL
  • Overcast at 5,500' AGL
Temperatures Readings
Current 23°C / 73°F
Dewpoint 22°C / 72°F
Humidity 94%
Altimeter 30.11" Hg
Pressure 1020 hPa
Elevation 49
METAR KAQX 241115Z AUTO 00000KT 10SM BKN044 BKN049 OVC055 23/22 A3011 RMK AO2
Observed Flight Rules
Sep-24 @ 11:15 UTC
(17 minutes ago)
VFR
Clouds
  • Broken at 4,400' AGL
  • Broken at 4,900' AGL
  • Overcast at 5,500' AGL
Temperature Dewpoint
23°C / 73°F 22°C / 72°F
Humidity Altimeter Pressure
94% 30.11" Hg 1020 hPa